sensor_id;sensor_type;location;lat;lon;timestamp;P1;P2;P0
36453;PMS5003;22478;51.740;-1.314;2023-04-29T00:01:23;34;32;
36453;PMS5003;22478;51.740;-1.314;2023-04-29T00:03:50;41;40;
36453;PMS5003;22478;51.740;-1.314;2023-04-29T00:06:17;41;37;
36453;PMS5003;22478;51.740;-1.314;2023-04-29T00:08:44;49;39;
36453;PMS5003;22478;51.740;-1.314;2023-04-29T00:11:11;39;34;
36453;PMS5003;22478;51.740;-1.314;2023-04-29T00:13:38;40;37;
36453;PMS5003;22478;51.740;-1.314;2023-04-29T00:16:06;38;35;
36453;PMS5003;22478;51.740;-1.314;2023-04-29T00:18:33;36;29;
36453;PMS5003;22478;51.740;-1.314;2023-04-29T00:21:01;32;31;
36453;PMS5003;22478;51.740;-1.314;2023-04-29T00:23:28;37;31;
36453;PMS5003;22478;51.740;-1.314;2023-04-29T00:25:56;33;30;
36453;PMS5003;22478;51.740;-1.314;2023-04-29T00:28:23;30;27;
36453;PMS5003;22478;51.740;-1.314;2023-04-29T00:30:50;35;33;
36453;PMS5003;22478;51.740;-1.314;2023-04-29T00:33:17;40;33;
36453;PMS5003;22478;51.740;-1.314;2023-04-29T00:35:45;36;34;
36453;PMS5003;22478;51.740;-1.314;2023-04-29T00:38:13;45;33;
36453;PMS5003;22478;51.740;-1.314;2023-04-29T00:40:40;42;39;
36453;PMS5003;22478;51.740;-1.314;2023-04-29T00:43:07;35;33;
36453;PMS5003;22478;51.740;-1.314;2023-04-29T00:45:35;37;36;
36453;PMS5003;22478;51.740;-1.314;2023-04-29T00:48:02;35;31;
36453;PMS5003;22478;51.740;-1.314;2023-04-29T00:50:30;34;29;
36453;PMS5003;22478;51.740;-1.314;2023-04-29T00:52:57;32;30;
36453;PMS5003;22478;51.740;-1.314;2023-04-29T00:55:25;40;36;
36453;PMS5003;22478;51.740;-1.314;2023-04-29T00:57:52;34;31;
36453;PMS5003;22478;51.740;-1.314;2023-04-29T01:00:20;43;37;
36453;PMS5003;22478;51.740;-1.314;2023-04-29T01:02:48;32;28;
36453;PMS5003;22478;51.740;-1.314;2023-04-29T01:05:16;34;34;
36453;PMS5003;22478;51.740;-1.314;2023-04-29T01:07:46;36;31;
36453;PMS5003;22478;51.740;-1.314;2023-04-29T01:10:23;35;29;
36453;PMS5003;22478;51.740;-1.314;2023-04-29T01:12:57;33;31;
36453;PMS5003;22478;51.740;-1.314;2023-04-29T01:15:34;37;29;
36453;PMS5003;22478;51.740;-1.314;2023-04-29T01:18:13;37;33;
36453;PMS5003;22478;51.740;-1.314;2023-04-29T01:20:51;37;31;
36453;PMS5003;22478;51.740;-1.314;2023-04-29T01:23:18;35;32;
36453;PMS5003;22478;51.740;-1.314;2023-04-29T01:25:45;36;31;
36453;PMS5003;22478;51.740;-1.314;2023-04-29T01:28:17;36;32;
36453;PMS5003;22478;51.740;-1.314;2023-04-29T01:30:52;37;32;
36453;PMS5003;22478;51.740;-1.314;2023-04-29T01:33:28;36;30;
36453;PMS5003;22478;51.740;-1.314;2023-04-29T01:36:09;27;26;
36453;PMS5003;22478;51.740;-1.314;2023-04-29T01:38:52;37;31;
36453;PMS5003;22478;51.740;-1.314;2023-04-29T01:41:28;35;31;
36453;PMS5003;22478;51.740;-1.314;2023-04-29T01:44:01;31;27;
36453;PMS5003;22478;51.740;-1.314;2023-04-29T01:46:29;36;29;
36453;PMS5003;22478;51.740;-1.314;2023-04-29T01:48:56;34;31;
36453;PMS5003;22478;51.740;-1.314;2023-04-29T01:51:24;42;32;
36453;PMS5003;22478;51.740;-1.314;2023-04-29T01:53:51;31;29;
36453;PMS5003;22478;51.740;-1.314;2023-04-29T01:56:18;33;30;
36453;PMS5003;22478;51.740;-1.314;2023-04-29T01:58:46;35;32;
36453;PMS5003;22478;51.740;-1.314;2023-04-29T02:01:13;31;26;
36453;PMS5003;22478;51.740;-1.314;2023-04-29T02:03:41;27;23;
36453;PMS5003;22478;51.740;-1.314;2023-04-29T02:06:08;30;26;
36453;PMS5003;22478;51.740;-1.314;2023-04-29T02:08:35;29;24;
36453;PMS5003;22478;51.740;-1.314;2023-04-29T02:11:03;35;34;
36453;PMS5003;22478;51.740;-1.314;2023-04-29T02:13:30;34;33;
36453;PMS5003;22478;51.740;-1.314;2023-04-29T02:16:05;38;32;
36453;PMS5003;22478;51.740;-1.314;2023-04-29T02:18:33;34;30;
36453;PMS5003;22478;51.740;-1.314;2023-04-29T02:21:00;37;35;
36453;PMS5003;22478;51.740;-1.314;2023-04-29T02:23:27;34;33;
36453;PMS5003;22478;51.740;-1.314;2023-04-29T02:25:55;39;32;
36453;PMS5003;22478;51.740;-1.314;2023-04-29T02:28:21;32;30;
36453;PMS5003;22478;51.740;-1.314;2023-04-29T02:30:49;34;33;
36453;PMS5003;22478;51.740;-1.314;2023-04-29T02:33:16;30;29;
36453;PMS5003;22478;51.740;-1.314;2023-04-29T02:35:43;31;29;
36453;PMS5003;22478;51.740;-1.314;2023-04-29T02:38:11;46;39;
36453;PMS5003;22478;51.740;-1.314;2023-04-29T02:40:40;37;35;
36453;PMS5003;22478;51.740;-1.314;2023-04-29T02:43:07;33;33;
36453;PMS5003;22478;51.740;-1.314;2023-04-29T02:45:35;36;32;
36453;PMS5003;22478;51.740;-1.314;2023-04-29T02:48:02;38;34;
36453;PMS5003;22478;51.740;-1.314;2023-04-29T02:50:29;37;36;
36453;PMS5003;22478;51.740;-1.314;2023-04-29T02:52:57;34;29;
36453;PMS5003;22478;51.740;-1.314;2023-04-29T02:55:23;32;29;
36453;PMS5003;22478;51.740;-1.314;2023-04-29T02:57:50;35;30;
36453;PMS5003;22478;51.740;-1.314;2023-04-29T03:00:18;33;33;
36453;PMS5003;22478;51.740;-1.314;2023-04-29T03:02:45;38;38;
36453;PMS5003;22478;51.740;-1.314;2023-04-29T03:05:12;38;35;
36453;PMS5003;22478;51.740;-1.314;2023-04-29T03:07:40;43;40;
36453;PMS5003;22478;51.740;-1.314;2023-04-29T03:10:08;44;38;
36453;PMS5003;22478;51.740;-1.314;2023-04-29T03:12:36;43;38;
36453;PMS5003;22478;51.740;-1.314;2023-04-29T03:15:04;44;34;
36453;PMS5003;22478;51.740;-1.314;2023-04-29T03:17:32;39;36;
36453;PMS5003;22478;51.740;-1.314;2023-04-29T03:20:00;34;31;
36453;PMS5003;22478;51.740;-1.314;2023-04-29T03:22:27;31;28;
36453;PMS5003;22478;51.740;-1.314;2023-04-29T03:24:54;29;28;
36453;PMS5003;22478;51.740;-1.314;2023-04-29T03:27:21;34;30;
36453;PMS5003;22478;51.740;-1.314;2023-04-29T03:29:48;35;29;
36453;PMS5003;22478;51.740;-1.314;2023-04-29T03:32:15;40;32;
36453;PMS5003;22478;51.740;-1.314;2023-04-29T03:34:43;30;28;
36453;PMS5003;22478;51.740;-1.314;2023-04-29T03:37:09;39;34;
36453;PMS5003;22478;51.740;-1.314;2023-04-29T03:39:37;45;37;
36453;PMS5003;22478;51.740;-1.314;2023-04-29T03:42:04;37;30;
36453;PMS5003;22478;51.740;-1.314;2023-04-29T03:44:31;32;30;
36453;PMS5003;22478;51.740;-1.314;2023-04-29T03:46:58;30;25;
36453;PMS5003;22478;51.740;-1.314;2023-04-29T03:49:26;35;31;
36453;PMS5003;22478;51.740;-1.314;2023-04-29T03:51:53;33;31;
36453;PMS5003;22478;51.740;-1.314;2023-04-29T03:54:20;34;32;
36453;PMS5003;22478;51.740;-1.314;2023-04-29T03:56:48;42;37;
36453;PMS5003;22478;51.740;-1.314;2023-04-29T03:59:15;56;49;
36453;PMS5003;22478;51.740;-1.314;2023-04-29T04:01:42;41;36;
36453;PMS5003;22478;51.740;-1.314;2023-04-29T04:04:10;42;42;
36453;PMS5003;22478;51.740;-1.314;2023-04-29T04:06:37;59;55;
36453;PMS5003;22478;51.740;-1.314;2023-04-29T04:09:05;50;45;
36453;PMS5003;22478;51.740;-1.314;2023-04-29T04:11:33;45;36;
36453;PMS5003;22478;51.740;-1.314;2023-04-29T04:14:00;41;35;
36453;PMS5003;22478;51.740;-1.314;2023-04-29T04:16:27;43;38;
36453;PMS5003;22478;51.740;-1.314;2023-04-29T04:18:54;25;24;
36453;PMS5003;22478;51.740;-1.314;2023-04-29T04:21:21;35;33;
36453;PMS5003;22478;51.740;-1.314;2023-04-29T04:23:48;42;38;
36453;PMS5003;22478;51.740;-1.314;2023-04-29T04:26:15;38;33;
36453;PMS5003;22478;51.740;-1.314;2023-04-29T04:28:42;31;27;
36453;PMS5003;22478;51.740;-1.314;2023-04-29T04:31:09;27;27;
36453;PMS5003;22478;51.740;-1.314;2023-04-29T04:33:37;30;26;
36453;PMS5003;22478;51.740;-1.314;2023-04-29T04:36:05;34;27;
36453;PMS5003;22478;51.740;-1.314;2023-04-29T04:38:32;38;31;
36453;PMS5003;22478;51.740;-1.314;2023-04-29T04:40:59;28;21;
36453;PMS5003;22478;51.740;-1.314;2023-04-29T04:43:27;50;42;
36453;PMS5003;22478;51.740;-1.314;2023-04-29T04:45:53;52;52;
36453;PMS5003;22478;51.740;-1.314;2023-04-29T04:48:21;56;51;
36453;PMS5003;22478;51.740;-1.314;2023-04-29T04:50:48;58;54;
36453;PMS5003;22478;51.740;-1.314;2023-04-29T04:53:15;58;56;
36453;PMS5003;22478;51.740;-1.314;2023-04-29T04:55:42;89;81;
36453;PMS5003;22478;51.740;-1.314;2023-04-29T04:58:10;98;94;
36453;PMS5003;22478;51.740;-1.314;2023-04-29T05:00:37;103;94;
36453;PMS5003;22478;51.740;-1.314;2023-04-29T05:03:09;101;97;
36453;PMS5003;22478;51.740;-1.314;2023-04-29T05:05:37;96;92;
36453;PMS5003;22478;51.740;-1.314;2023-04-29T05:08:04;83;80;
36453;PMS5003;22478;51.740;-1.314;2023-04-29T05:10:34;69;67;
36453;PMS5003;22478;51.740;-1.314;2023-04-29T05:13:02;58;51;
36453;PMS5003;22478;51.740;-1.314;2023-04-29T05:15:29;56;50;
36453;PMS5003;22478;51.740;-1.314;2023-04-29T05:17:56;56;53;
36453;PMS5003;22478;51.740;-1.314;2023-04-29T05:20:24;52;45;
36453;PMS5003;22478;51.740;-1.314;2023-04-29T05:22:51;48;43;
36453;PMS5003;22478;51.740;-1.314;2023-04-29T05:25:19;34;31;
36453;PMS5003;22478;51.740;-1.314;2023-04-29T05:27:46;31;28;
36453;PMS5003;22478;51.740;-1.314;2023-04-29T05:30:13;35;29;
36453;PMS5003;22478;51.740;-1.314;2023-04-29T05:32:41;30;23;
36453;PMS5003;22478;51.740;-1.314;2023-04-29T05:35:08;28;25;
36453;PMS5003;22478;51.740;-1.314;2023-04-29T05:37:35;30;26;
36453;PMS5003;22478;51.740;-1.314;2023-04-29T05:40:03;38;30;
36453;PMS5003;22478;51.740;-1.314;2023-04-29T05:42:31;34;30;
36453;PMS5003;22478;51.740;-1.314;2023-04-29T05:44:58;34;33;
36453;PMS5003;22478;51.740;-1.314;2023-04-29T05:47:25;38;34;
36453;PMS5003;22478;51.740;-1.314;2023-04-29T05:49:53;43;36;
36453;PMS5003;22478;51.740;-1.314;2023-04-29T05:52:19;49;43;
36453;PMS5003;22478;51.740;-1.314;2023-04-29T05:54:46;46;41;
36453;PMS5003;22478;51.740;-1.314;2023-04-29T05:57:13;39;36;
36453;PMS5003;22478;51.740;-1.314;2023-04-29T05:59:40;44;37;
36453;PMS5003;22478;51.740;-1.314;2023-04-29T06:02:08;44;39;
36453;PMS5003;22478;51.740;-1.314;2023-04-29T06:04:35;48;42;
36453;PMS5003;22478;51.740;-1.314;2023-04-29T06:07:02;47;44;
36453;PMS5003;22478;51.740;-1.314;2023-04-29T06:09:29;44;40;
36453;PMS5003;22478;51.740;-1.314;2023-04-29T06:11:57;44;39;
36453;PMS5003;22478;51.740;-1.314;2023-04-29T06:14:24;49;39;
36453;PMS5003;22478;51.740;-1.314;2023-04-29T06:16:52;43;40;
36453;PMS5003;22478;51.740;-1.314;2023-04-29T06:19:19;39;33;
36453;PMS5003;22478;51.740;-1.314;2023-04-29T06:21:46;44;35;
36453;PMS5003;22478;51.740;-1.314;2023-04-29T06:24:13;50;41;
36453;PMS5003;22478;51.740;-1.314;2023-04-29T06:26:40;45;40;
36453;PMS5003;22478;51.740;-1.314;2023-04-29T06:29:08;58;50;
36453;PMS5003;22478;51.740;-1.314;2023-04-29T06:31:35;57;53;
36453;PMS5003;22478;51.740;-1.314;2023-04-29T06:34:02;65;61;
36453;PMS5003;22478;51.740;-1.314;2023-04-29T06:36:30;68;54;
36453;PMS5003;22478;51.740;-1.314;2023-04-29T06:38:57;55;45;
36453;PMS5003;22478;51.740;-1.314;2023-04-29T06:41:24;48;41;
36453;PMS5003;22478;51.740;-1.314;2023-04-29T06:43:52;37;34;
36453;PMS5003;22478;51.740;-1.314;2023-04-29T06:46:19;42;36;
36453;PMS5003;22478;51.740;-1.314;2023-04-29T06:48:46;44;38;
36453;PMS5003;22478;51.740;-1.314;2023-04-29T06:51:13;35;32;
36453;PMS5003;22478;51.740;-1.314;2023-04-29T06:53:40;49;38;
36453;PMS5003;22478;51.740;-1.314;2023-04-29T06:56:07;45;42;
36453;PMS5003;22478;51.740;-1.314;2023-04-29T06:58:35;41;38;
36453;PMS5003;22478;51.740;-1.314;2023-04-29T07:01:02;53;48;
36453;PMS5003;22478;51.740;-1.314;2023-04-29T07:03:30;52;44;
36453;PMS5003;22478;51.740;-1.314;2023-04-29T07:05:57;51;41;
36453;PMS5003;22478;51.740;-1.314;2023-04-29T07:08:25;46;40;
36453;PMS5003;22478;51.740;-1.314;2023-04-29T07:10:53;41;35;
36453;PMS5003;22478;51.740;-1.314;2023-04-29T07:13:21;48;39;
36453;PMS5003;22478;51.740;-1.314;2023-04-29T07:15:48;44;38;
36453;PMS5003;22478;51.740;-1.314;2023-04-29T07:18:15;58;46;
36453;PMS5003;22478;51.740;-1.314;2023-04-29T07:20:42;53;39;
36453;PMS5003;22478;51.740;-1.314;2023-04-29T07:23:10;41;38;
36453;PMS5003;22478;51.740;-1.314;2023-04-29T07:25:37;35;30;
36453;PMS5003;22478;51.740;-1.314;2023-04-29T07:28:05;41;31;
36453;PMS5003;22478;51.740;-1.314;2023-04-29T07:30:33;34;29;
36453;PMS5003;22478;51.740;-1.314;2023-04-29T07:33:00;44;36;
36453;PMS5003;22478;51.740;-1.314;2023-04-29T07:35:27;38;31;
36453;PMS5003;22478;51.740;-1.314;2023-04-29T07:37:54;40;33;
36453;PMS5003;22478;51.740;-1.314;2023-04-29T07:40:22;35;31;
36453;PMS5003;22478;51.740;-1.314;2023-04-29T07:42:49;39;31;
36453;PMS5003;22478;51.740;-1.314;2023-04-29T07:45:16;46;35;
36453;PMS5003;22478;51.740;-1.314;2023-04-29T07:47:44;42;32;
36453;PMS5003;22478;51.740;-1.314;2023-04-29T07:50:11;37;30;
36453;PMS5003;22478;51.740;-1.314;2023-04-29T07:52:39;34;31;
36453;PMS5003;22478;51.740;-1.314;2023-04-29T07:55:06;28;27;
36453;PMS5003;22478;51.740;-1.314;2023-04-29T07:57:34;38;30;
36453;PMS5003;22478;51.740;-1.314;2023-04-29T08:00:01;31;27;
36453;PMS5003;22478;51.740;-1.314;2023-04-29T08:02:29;37;34;
36453;PMS5003;22478;51.740;-1.314;2023-04-29T08:04:56;36;30;
36453;PMS5003;22478;51.740;-1.314;2023-04-29T08:07:24;33;33;
36453;PMS5003;22478;51.740;-1.314;2023-04-29T08:09:51;34;31;
36453;PMS5003;22478;51.740;-1.314;2023-04-29T08:12:19;50;48;
36453;PMS5003;22478;51.740;-1.314;2023-04-29T08:14:46;35;29;
36453;PMS5003;22478;51.740;-1.314;2023-04-29T08:17:14;61;57;
36453;PMS5003;22478;51.740;-1.314;2023-04-29T08:19:41;48;47;
36453;PMS5003;22478;51.740;-1.314;2023-04-29T08:22:08;43;40;
36453;PMS5003;22478;51.740;-1.314;2023-04-29T08:24:35;44;41;
36453;PMS5003;22478;51.740;-1.314;2023-04-29T08:27:03;31;30;
36453;PMS5003;22478;51.740;-1.314;2023-04-29T08:29:30;35;31;
36453;PMS5003;22478;51.740;-1.314;2023-04-29T08:31:58;30;28;
36453;PMS5003;22478;51.740;-1.314;2023-04-29T08:34:26;36;31;
36453;PMS5003;22478;51.740;-1.314;2023-04-29T08:36:53;35;31;
36453;PMS5003;22478;51.740;-1.314;2023-04-29T08:39:20;26;22;
36453;PMS5003;22478;51.740;-1.314;2023-04-29T08:41:47;31;28;
36453;PMS5003;22478;51.740;-1.314;2023-04-29T08:44:15;28;23;
36453;PMS5003;22478;51.740;-1.314;2023-04-29T08:46:42;30;30;
36453;PMS5003;22478;51.740;-1.314;2023-04-29T08:49:11;39;36;
36453;PMS5003;22478;51.740;-1.314;2023-04-29T08:51:39;37;34;
36453;PMS5003;22478;51.740;-1.314;2023-04-29T08:54:06;30;26;
36453;PMS5003;22478;51.740;-1.314;2023-04-29T08:56:34;36;32;
36453;PMS5003;22478;51.740;-1.314;2023-04-29T08:59:02;37;28;
36453;PMS5003;22478;51.740;-1.314;2023-04-29T09:01:32;45;38;
36453;PMS5003;22478;51.740;-1.314;2023-04-29T09:04:07;38;33;
36453;PMS5003;22478;51.740;-1.314;2023-04-29T09:06:38;34;32;
36453;PMS5003;22478;51.740;-1.314;2023-04-29T09:09:06;40;38;
36453;PMS5003;22478;51.740;-1.314;2023-04-29T09:11:33;39;35;
36453;PMS5003;22478;51.740;-1.314;2023-04-29T09:14:02;33;31;
36453;PMS5003;22478;51.740;-1.314;2023-04-29T09:16:30;33;30;
36453;PMS5003;22478;51.740;-1.314;2023-04-29T09:18:57;44;38;
36453;PMS5003;22478;51.740;-1.314;2023-04-29T09:21:25;40;36;
36453;PMS5003;22478;51.740;-1.314;2023-04-29T09:23:56;33;31;
36453;PMS5003;22478;51.740;-1.314;2023-04-29T09:26:24;31;29;
36453;PMS5003;22478;51.740;-1.314;2023-04-29T09:29:05;38;35;
36453;PMS5003;22478;51.740;-1.314;2023-04-29T09:31:33;36;35;
36453;PMS5003;22478;51.740;-1.314;2023-04-29T09:34:00;38;33;
36453;PMS5003;22478;51.740;-1.314;2023-04-29T09:36:35;36;31;
36453;PMS5003;22478;51.740;-1.314;2023-04-29T09:39:04;37;37;
36453;PMS5003;22478;51.740;-1.314;2023-04-29T09:41:32;37;34;
36453;PMS5003;22478;51.740;-1.314;2023-04-29T09:44:01;42;37;
36453;PMS5003;22478;51.740;-1.314;2023-04-29T09:46:31;43;38;
36453;PMS5003;22478;51.740;-1.314;2023-04-29T09:48:58;33;31;
36453;PMS5003;22478;51.740;-1.314;2023-04-29T09:51:26;36;32;
36453;PMS5003;22478;51.740;-1.314;2023-04-29T09:53:53;33;27;
36453;PMS5003;22478;51.740;-1.314;2023-04-29T09:56:20;33;30;
36453;PMS5003;22478;51.740;-1.314;2023-04-29T09:58:47;23;22;
36453;PMS5003;22478;51.740;-1.314;2023-04-29T10:01:14;38;32;
36453;PMS5003;22478;51.740;-1.314;2023-04-29T10:03:43;38;38;
36453;PMS5003;22478;51.740;-1.314;2023-04-29T10:06:11;35;34;
36453;PMS5003;22478;51.740;-1.314;2023-04-29T10:08:39;42;37;
36453;PMS5003;22478;51.740;-1.314;2023-04-29T10:11:06;35;34;
36453;PMS5003;22478;51.740;-1.314;2023-04-29T10:13:37;30;30;
36453;PMS5003;22478;51.740;-1.314;2023-04-29T10:16:10;39;38;
36453;PMS5003;22478;51.740;-1.314;2023-04-29T10:18:48;42;41;
36453;PMS5003;22478;51.740;-1.314;2023-04-29T10:21:20;40;35;
36453;PMS5003;22478;51.740;-1.314;2023-04-29T10:23:53;23;23;
36453;PMS5003;22478;51.740;-1.314;2023-04-29T10:26:24;21;18;
36453;PMS5003;22478;51.740;-1.314;2023-04-29T10:28:53;19;19;
36453;PMS5003;22478;51.740;-1.314;2023-04-29T10:31:21;27;26;
36453;PMS5003;22478;51.740;-1.314;2023-04-29T10:33:52;33;33;
36453;PMS5003;22478;51.740;-1.314;2023-04-29T10:36:22;26;24;
36453;PMS5003;22478;51.740;-1.314;2023-04-29T10:38:52;21;20;
36453;PMS5003;22478;51.740;-1.314;2023-04-29T10:41:23;18;17;
36453;PMS5003;22478;51.740;-1.314;2023-04-29T10:43:53;36;33;
36453;PMS5003;22478;51.740;-1.314;2023-04-29T10:46:22;29;28;
36453;PMS5003;22478;51.740;-1.314;2023-04-29T10:48:50;35;34;
36453;PMS5003;22478;51.740;-1.314;2023-04-29T10:51:31;34;33;
36453;PMS5003;22478;51.740;-1.314;2023-04-29T10:53:59;43;39;
36453;PMS5003;22478;51.740;-1.314;2023-04-29T10:56:46;34;34;
36453;PMS5003;22478;51.740;-1.314;2023-04-29T10:59:15;34;32;
36453;PMS5003;22478;51.740;-1.314;2023-04-29T11:01:46;27;26;
36453;PMS5003;22478;51.740;-1.314;2023-04-29T11:04:15;32;32;
36453;PMS5003;22478;51.740;-1.314;2023-04-29T11:06:45;35;31;
36453;PMS5003;22478;51.740;-1.314;2023-04-29T11:09:14;34;34;
36453;PMS5003;22478;51.740;-1.314;2023-04-29T11:11:46;34;34;
36453;PMS5003;22478;51.740;-1.314;2023-04-29T11:14:23;23;23;
36453;PMS5003;22478;51.740;-1.314;2023-04-29T11:16:53;26;23;
36453;PMS5003;22478;51.740;-1.314;2023-04-29T11:19:23;26;24;
36453;PMS5003;22478;51.740;-1.314;2023-04-29T11:22:24;31;28;
36453;PMS5003;22478;51.740;-1.314;2023-04-29T11:24:54;42;41;
36453;PMS5003;22478;51.740;-1.314;2023-04-29T11:27:24;42;42;
36453;PMS5003;22478;51.740;-1.314;2023-04-29T11:29:52;38;38;
36453;PMS5003;22478;51.740;-1.314;2023-04-29T11:32:20;24;23;
36453;PMS5003;22478;51.740;-1.314;2023-04-29T11:34:48;30;28;
36453;PMS5003;22478;51.740;-1.314;2023-04-29T11:37:19;12;12;
36453;PMS5003;22478;51.740;-1.314;2023-04-29T11:39:47;23;23;
36453;PMS5003;22478;51.740;-1.314;2023-04-29T11:42:18;17;17;
36453;PMS5003;22478;51.740;-1.314;2023-04-29T11:44:45;16;14;
36453;PMS5003;22478;51.740;-1.314;2023-04-29T11:47:12;17;17;
36453;PMS5003;22478;51.740;-1.314;2023-04-29T11:49:39;16;16;
36453;PMS5003;22478;51.740;-1.314;2023-04-29T11:52:06;20;19;
36453;PMS5003;22478;51.740;-1.314;2023-04-29T11:54:33;26;25;
36453;PMS5003;22478;51.740;-1.314;2023-04-29T11:57:01;28;26;
36453;PMS5003;22478;51.740;-1.314;2023-04-29T11:59:28;22;21;
36453;PMS5003;22478;51.740;-1.314;2023-04-29T12:01:57;31;29;
36453;PMS5003;22478;51.740;-1.314;2023-04-29T12:04:25;37;37;
36453;PMS5003;22478;51.740;-1.314;2023-04-29T12:06:52;33;31;
36453;PMS5003;22478;51.740;-1.314;2023-04-29T12:09:19;35;33;
36453;PMS5003;22478;51.740;-1.314;2023-04-29T12:11:47;41;39;
36453;PMS5003;22478;51.740;-1.314;2023-04-29T12:14:15;35;33;
36453;PMS5003;22478;51.740;-1.314;2023-04-29T12:16:43;42;40;
36453;PMS5003;22478;51.740;-1.314;2023-04-29T12:19:11;43;41;
36453;PMS5003;22478;51.740;-1.314;2023-04-29T12:21:47;47;46;
36453;PMS5003;22478;51.740;-1.314;2023-04-29T12:24:15;42;41;
36453;PMS5003;22478;51.740;-1.314;2023-04-29T12:26:43;45;43;
36453;PMS5003;22478;51.740;-1.314;2023-04-29T12:29:11;35;35;
36453;PMS5003;22478;51.740;-1.314;2023-04-29T12:31:39;31;31;
36453;PMS5003;22478;51.740;-1.314;2023-04-29T12:34:06;30;26;
36453;PMS5003;22478;51.740;-1.314;2023-04-29T12:36:34;26;26;
36453;PMS5003;22478;51.740;-1.314;2023-04-29T12:39:04;23;21;
36453;PMS5003;22478;51.740;-1.314;2023-04-29T12:41:35;24;24;
36453;PMS5003;22478;51.740;-1.314;2023-04-29T12:44:03;18;16;
36453;PMS5003;22478;51.740;-1.314;2023-04-29T12:46:35;19;17;
36453;PMS5003;22478;51.740;-1.314;2023-04-29T12:49:03;12;10;
36453;PMS5003;22478;51.740;-1.314;2023-04-29T12:51:32;14;14;
36453;PMS5003;22478;51.740;-1.314;2023-04-29T12:54:00;13;13;
36453;PMS5003;22478;51.740;-1.314;2023-04-29T12:56:28;19;18;
36453;PMS5003;22478;51.740;-1.314;2023-04-29T12:58:55;27;26;
36453;PMS5003;22478;51.740;-1.314;2023-04-29T13:01:30;33;31;
36453;PMS5003;22478;51.740;-1.314;2023-04-29T13:03:57;43;43;
36453;PMS5003;22478;51.740;-1.314;2023-04-29T13:06:24;39;38;
36453;PMS5003;22478;51.740;-1.314;2023-04-29T13:08:51;46;46;
36453;PMS5003;22478;51.740;-1.314;2023-04-29T13:11:18;33;33;
36453;PMS5003;22478;51.740;-1.314;2023-04-29T13:13:46;39;39;
36453;PMS5003;22478;51.740;-1.314;2023-04-29T13:16:13;36;34;
36453;PMS5003;22478;51.740;-1.314;2023-04-29T13:18:40;28;28;
36453;PMS5003;22478;51.740;-1.314;2023-04-29T13:21:08;26;25;
36453;PMS5003;22478;51.740;-1.314;2023-04-29T13:23:35;41;41;
36453;PMS5003;22478;51.740;-1.314;2023-04-29T13:26:03;44;44;
36453;PMS5003;22478;51.740;-1.314;2023-04-29T13:28:31;45;45;
36453;PMS5003;22478;51.740;-1.314;2023-04-29T13:30:58;45;44;
36453;PMS5003;22478;51.740;-1.314;2023-04-29T13:33:25;33;33;
36453;PMS5003;22478;51.740;-1.314;2023-04-29T13:35:52;34;34;
36453;PMS5003;22478;51.740;-1.314;2023-04-29T13:38:19;42;42;
36453;PMS5003;22478;51.740;-1.314;2023-04-29T13:40:46;45;44;
36453;PMS5003;22478;51.740;-1.314;2023-04-29T13:43:13;45;45;
36453;PMS5003;22478;51.740;-1.314;2023-04-29T13:45:40;39;39;
36453;PMS5003;22478;51.740;-1.314;2023-04-29T13:48:08;36;36;
36453;PMS5003;22478;51.740;-1.314;2023-04-29T13:50:35;33;33;
36453;PMS5003;22478;51.740;-1.314;2023-04-29T13:53:02;26;26;
36453;PMS5003;22478;51.740;-1.314;2023-04-29T13:55:30;24;24;
36453;PMS5003;22478;51.740;-1.314;2023-04-29T13:57:57;19;19;
36453;PMS5003;22478;51.740;-1.314;2023-04-29T14:00:24;16;15;
36453;PMS5003;22478;51.740;-1.314;2023-04-29T14:02:52;28;27;
36453;PMS5003;22478;51.740;-1.314;2023-04-29T14:05:20;32;30;
36453;PMS5003;22478;51.740;-1.314;2023-04-29T14:07:47;26;25;
36453;PMS5003;22478;51.740;-1.314;2023-04-29T14:10:14;31;29;
36453;PMS5003;22478;51.740;-1.314;2023-04-29T14:12:42;17;15;
36453;PMS5003;22478;51.740;-1.314;2023-04-29T14:15:10;24;20;
36453;PMS5003;22478;51.740;-1.314;2023-04-29T14:17:38;13;12;
36453;PMS5003;22478;51.740;-1.314;2023-04-29T14:20:05;22;21;
36453;PMS5003;22478;51.740;-1.314;2023-04-29T14:22:33;19;19;
36453;PMS5003;22478;51.740;-1.314;2023-04-29T14:25:01;28;28;
36453;PMS5003;22478;51.740;-1.314;2023-04-29T14:27:28;22;21;
36453;PMS5003;22478;51.740;-1.314;2023-04-29T14:29:55;23;22;
36453;PMS5003;22478;51.740;-1.314;2023-04-29T14:32:23;26;23;
36453;PMS5003;22478;51.740;-1.314;2023-04-29T14:34:50;15;15;
36453;PMS5003;22478;51.740;-1.314;2023-04-29T14:37:17;23;21;
36453;PMS5003;22478;51.740;-1.314;2023-04-29T14:39:44;13;13;
36453;PMS5003;22478;51.740;-1.314;2023-04-29T14:42:12;15;15;
36453;PMS5003;22478;51.740;-1.314;2023-04-29T14:44:39;17;17;
36453;PMS5003;22478;51.740;-1.314;2023-04-29T14:47:06;18;15;
36453;PMS5003;22478;51.740;-1.314;2023-04-29T14:49:34;15;14;
36453;PMS5003;22478;51.740;-1.314;2023-04-29T14:52:01;15;15;
36453;PMS5003;22478;51.740;-1.314;2023-04-29T14:54:28;25;24;
36453;PMS5003;22478;51.740;-1.314;2023-04-29T14:56:56;16;15;
36453;PMS5003;22478;51.740;-1.314;2023-04-29T14:59:23;19;18;
36453;PMS5003;22478;51.740;-1.314;2023-04-29T15:01:50;21;21;
36453;PMS5003;22478;51.740;-1.314;2023-04-29T15:04:17;35;32;
36453;PMS5003;22478;51.740;-1.314;2023-04-29T15:06:44;32;31;
36453;PMS5003;22478;51.740;-1.314;2023-04-29T15:09:12;24;23;
36453;PMS5003;22478;51.740;-1.314;2023-04-29T15:11:39;27;25;
36453;PMS5003;22478;51.740;-1.314;2023-04-29T15:14:07;29;28;
36453;PMS5003;22478;51.740;-1.314;2023-04-29T15:16:34;30;29;
36453;PMS5003;22478;51.740;-1.314;2023-04-29T15:19:01;27;27;
36453;PMS5003;22478;51.740;-1.314;2023-04-29T15:21:28;25;25;
36453;PMS5003;22478;51.740;-1.314;2023-04-29T15:23:55;26;23;
36453;PMS5003;22478;51.740;-1.314;2023-04-29T15:26:22;31;29;
36453;PMS5003;22478;51.740;-1.314;2023-04-29T15:28:50;30;30;
36453;PMS5003;22478;51.740;-1.314;2023-04-29T15:31:17;24;24;
36453;PMS5003;22478;51.740;-1.314;2023-04-29T15:33:44;29;29;
36453;PMS5003;22478;51.740;-1.314;2023-04-29T15:36:11;42;42;
36453;PMS5003;22478;51.740;-1.314;2023-04-29T15:38:38;44;44;
36453;PMS5003;22478;51.740;-1.314;2023-04-29T15:41:05;39;39;
36453;PMS5003;22478;51.740;-1.314;2023-04-29T15:43:32;33;31;
36453;PMS5003;22478;51.740;-1.314;2023-04-29T15:46:00;35;33;
36453;PMS5003;22478;51.740;-1.314;2023-04-29T15:48:27;30;28;
36453;PMS5003;22478;51.740;-1.314;2023-04-29T15:50:55;50;50;
36453;PMS5003;22478;51.740;-1.314;2023-04-29T15:53:22;48;48;
36453;PMS5003;22478;51.740;-1.314;2023-04-29T15:55:49;44;42;
36453;PMS5003;22478;51.740;-1.314;2023-04-29T15:58:17;37;35;
36453;PMS5003;22478;51.740;-1.314;2023-04-29T16:00:44;37;37;
36453;PMS5003;22478;51.740;-1.314;2023-04-29T16:03:11;50;49;
36453;PMS5003;22478;51.740;-1.314;2023-04-29T16:05:39;44;44;
36453;PMS5003;22478;51.740;-1.314;2023-04-29T16:08:05;37;36;